Time;durP1;ratioP1;P1;durP2;ratioP2;P2;SDS_P1;SDS_P2;PMS_P1;PMS_P2;Temp;Humidity;BMP_temperature;BMP_pressure;BME280_temperature;BME280_humidity;BME280_pressure;Samples;Min_cycle;Max_cycle;Signal;HPM_P1;HPM_P2
2021/09/12 00:01:20;;;;;;;4.55;3.67;;;17.80;99.90;;;;;;5062672;28;20024;-88
2021/09/12 00:03:46;;;;;;;5.15;3.83;;;17.70;99.90;;;;;;5082415;28;20115;-89
2021/09/12 00:06:12;;;;;;;5.38;3.58;;;17.60;99.90;;;;;;5082174;28;20047;-89
2021/09/12 00:08:37;;;;;;;4.65;3.45;;;17.40;99.90;;;;;;5058545;28;20054;-89
2021/09/12 00:11:04;;;;;;;4.28;3.65;;;17.40;99.90;;;;;;5093425;28;20511;-89
2021/09/12 00:13:30;;;;;;;5.38;3.83;;;17.40;99.90;;;;;;5094215;28;20099;-88
2021/09/12 00:15:55;;;;;;;5.15;3.75;;;17.60;99.90;;;;;;5082913;28;20071;-89
2021/09/12 00:18:21;;;;;;;4.25;3.60;;;17.70;99.90;;;;;;5087558;28;20456;-88
2021/09/12 00:20:47;;;;;;;3.92;3.35;;;17.50;99.90;;;;;;5069643;28;20512;-89
2021/09/12 00:23:12;;;;;;;4.10;3.70;;;17.50;99.90;;;;;;5093468;28;20028;-89
2021/09/12 00:25:38;;;;;;;6.25;3.53;;;17.40;99.90;;;;;;5093767;28;20028;-89
2021/09/12 00:28:04;;;;;;;4.97;3.47;;;17.40;99.90;;;;;;5093334;28;20541;-89
2021/09/12 00:30:29;;;;;;;4.28;3.88;;;17.40;99.90;;;;;;5085308;28;20028;-89
2021/09/12 00:32:55;;;;;;;4.45;3.90;;;17.30;99.90;;;;;;5081596;28;20797;-88
2021/09/12 00:35:21;;;;;;;5.18;4.03;;;17.40;99.90;;;;;;5059560;28;20024;-89
2021/09/12 00:37:50;;;;;;;4.70;3.97;;;17.50;99.90;;;;;;5059562;28;20377;-88
2021/09/12 00:40:18;;;;;;;5.25;3.90;;;17.30;99.90;;;;;;5079917;28;20024;-89
2021/09/12 00:42:44;;;;;;;4.40;4.00;;;17.10;99.90;;;;;;5063553;28;20059;-89
2021/09/12 00:45:10;;;;;;;4.40;3.97;;;17.10;99.90;;;;;;5080958;28;20068;-89
2021/09/12 00:47:36;;;;;;;4.82;4.00;;;17.00;99.90;;;;;;5081639;28;20039;-88
2021/09/12 00:50:02;;;;;;;5.75;3.80;;;17.00;99.90;;;;;;5092651;28;20032;-88
2021/09/12 00:52:30;;;;;;;4.60;4.20;;;17.10;99.90;;;;;;5077705;28;20067;-87
2021/09/12 00:54:59;;;;;;;6.97;4.53;;;17.10;99.90;;;;;;5062850;28;20499;-89
2021/09/12 00:57:25;;;;;;;4.40;4.00;;;17.10;99.90;;;;;;5069056;28;20024;-89
2021/09/12 00:59:52;;;;;;;4.97;4.05;;;16.90;99.90;;;;;;5092051;28;20039;-89
2021/09/12 01:02:21;;;;;;;4.65;3.72;;;16.90;99.90;;;;;;5093003;28;20028;-88
2021/09/12 01:04:47;;;;;;;4.90;4.40;;;16.80;99.90;;;;;;5076579;28;20033;-88
2021/09/12 01:07:18;;;;;;;5.55;4.32;;;16.70;99.90;;;;;;5062374;28;20122;-88
2021/09/12 01:09:44;;;;;;;5.25;4.13;;;16.80;99.90;;;;;;5062424;28;20036;-88
2021/09/12 01:12:11;;;;;;;4.40;3.50;;;16.70;99.90;;;;;;5080615;28;20036;-88
2021/09/12 01:14:37;;;;;;;6.80;3.92;;;16.80;99.90;;;;;;5080882;28;20064;-88
2021/09/12 01:17:04;;;;;;;4.68;4.00;;;17.00;99.90;;;;;;5092687;28;20392;-87
2021/09/12 01:19:31;;;;;;;5.05;3.80;;;16.80;99.90;;;;;;5059723;28;20032;-88
2021/09/12 01:22:07;;;;;;;7.90;4.00;;;16.70;99.90;;;;;;5091610;28;20028;-89
2021/09/12 01:24:36;;;;;;;5.00;4.18;;;16.70;99.90;;;;;;5084526;28;20048;-88
2021/09/12 01:27:02;;;;;;;5.60;3.78;;;16.70;99.90;;;;;;5081198;28;20501;-89
2021/09/12 01:29:28;;;;;;;7.22;3.92;;;16.60;99.90;;;;;;5079070;28;20043;-88
2021/09/12 01:31:54;;;;;;;5.50;4.13;;;16.60;99.90;;;;;;5075385;28;20244;-88
2021/09/12 01:34:20;;;;;;;5.03;3.85;;;16.40;99.90;;;;;;5078889;28;20516;-89
2021/09/12 01:36:45;;;;;;;4.43;4.03;;;16.40;99.90;;;;;;5090010;28;20040;-88
2021/09/12 01:39:12;;;;;;;4.88;3.63;;;16.40;99.90;;;;;;5088108;28;20454;-88
2021/09/12 01:41:38;;;;;;;4.55;4.10;;;16.40;99.90;;;;;;5080660;28;20020;-88
2021/09/12 01:44:05;;;;;;;4.25;3.85;;;16.40;99.90;;;;;;5075071;28;20040;-88
2021/09/12 01:46:32;;;;;;;4.55;3.90;;;16.40;99.90;;;;;;5059508;28;20037;-87
2021/09/12 01:49:05;;;;;;;4.88;4.38;;;16.50;99.90;;;;;;5080454;28;20032;-88
2021/09/12 01:51:30;;;;;;;4.55;3.80;;;16.60;99.90;;;;;;5080881;28;20032;-87
2021/09/12 01:53:56;;;;;;;4.30;3.83;;;16.60;99.90;;;;;;5080756;28;20024;-88
2021/09/12 01:56:22;;;;;;;4.20;3.63;;;16.50;99.90;;;;;;5078137;28;20024;-88
2021/09/12 01:58:48;;;;;;;4.88;3.95;;;16.50;99.90;;;;;;5073623;28;20039;-87
2021/09/12 02:01:14;;;;;;;4.75;3.75;;;16.60;99.90;;;;;;5092645;28;20485;-88
2021/09/12 02:03:39;;;;;;;4.30;3.90;;;16.70;99.90;;;;;;5065055;28;20043;-88
2021/09/12 02:06:05;;;;;;;5.32;4.22;;;16.60;99.90;;;;;;5080278;28;20502;-88
2021/09/12 02:08:31;;;;;;;5.13;4.07;;;16.60;99.90;;;;;;5060507;28;20020;-88
2021/09/12 02:10:56;;;;;;;6.90;4.57;;;16.70;99.90;;;;;;5091455;28;20028;-88
2021/09/12 02:13:22;;;;;;;5.57;3.90;;;16.70;99.90;;;;;;5092718;28;20062;-88
2021/09/12 02:15:48;;;;;;;4.63;4.07;;;16.50;99.90;;;;;;5081983;28;20032;-88
2021/09/12 02:18:14;;;;;;;4.18;3.78;;;16.40;99.90;;;;;;5080154;28;20036;-87
2021/09/12 02:20:40;;;;;;;5.97;3.80;;;16.40;99.90;;;;;;5079903;28;20024;-89
2021/09/12 02:23:06;;;;;;;4.10;3.78;;;16.30;99.90;;;;;;5079948;28;20512;-88
2021/09/12 02:25:34;;;;;;;5.53;3.65;;;16.40;99.90;;;;;;5074584;28;20036;-87
2021/09/12 02:28:00;;;;;;;4.35;3.72;;;16.50;99.90;;;;;;5095713;28;20062;-88
2021/09/12 02:30:26;;;;;;;4.72;3.90;;;16.40;99.90;;;;;;5089509;28;20024;-88
2021/09/12 02:32:52;;;;;;;4.28;3.88;;;16.40;99.90;;;;;;5083932;28;20077;-87
2021/09/12 02:35:18;;;;;;;4.55;4.07;;;16.30;99.90;;;;;;5062065;28;20024;-87
2021/09/12 02:37:43;;;;;;;4.47;3.90;;;16.20;99.90;;;;;;5079408;28;20078;-87
2021/09/12 02:40:10;;;;;;;7.68;3.97;;;16.10;99.90;;;;;;5082428;28;20033;-87
2021/09/12 02:42:35;;;;;;;4.40;3.63;;;16.20;99.90;;;;;;5083630;28;20063;-87
2021/09/12 02:45:01;;;;;;;6.18;3.83;;;16.20;99.90;;;;;;5083676;28;20056;-87
2021/09/12 02:47:26;;;;;;;5.35;3.85;;;16.20;99.90;;;;;;5081869;28;20074;-88
2021/09/12 02:49:52;;;;;;;4.85;3.80;;;16.10;99.90;;;;;;5060976;28;20094;-87
2021/09/12 02:52:18;;;;;;;4.47;4.07;;;16.10;99.90;;;;;;5081580;28;20028;-88
2021/09/12 02:54:43;;;;;;;4.60;3.80;;;16.00;99.90;;;;;;5071296;28;20024;-87
2021/09/12 02:57:09;;;;;;;4.63;3.83;;;16.00;99.90;;;;;;5095043;28;20028;-87
2021/09/12 02:59:34;;;;;;;4.05;3.53;;;16.00;99.90;;;;;;5094987;28;20114;-87
2021/09/12 03:02:00;;;;;;;4.22;3.80;;;16.10;99.90;;;;;;5060605;28;20028;-88
2021/09/12 03:04:26;;;;;;;4.20;3.80;;;16.10;99.90;;;;;;5080706;28;20039;-87
2021/09/12 03:06:52;;;;;;;4.28;3.85;;;16.10;99.90;;;;;;5093609;28;20043;-87
2021/09/12 03:09:17;;;;;;;3.90;3.45;;;16.20;99.90;;;;;;5088654;28;20024;-86
2021/09/12 03:11:43;;;;;;;4.15;3.75;;;16.10;99.90;;;;;;5083986;28;20488;-87
2021/09/12 03:14:09;;;;;;;5.88;4.05;;;16.00;99.90;;;;;;5076464;28;20020;-88
2021/09/12 03:16:35;;;;;;;5.47;3.80;;;16.00;99.90;;;;;;5078329;28;20079;-87
2021/09/12 03:19:00;;;;;;;4.35;3.75;;;15.90;99.90;;;;;;5083333;28;20032;-88
2021/09/12 03:21:26;;;;;;;4.82;3.78;;;15.80;99.90;;;;;;5064805;28;20042;-87
2021/09/12 03:23:52;;;;;;;4.97;3.70;;;15.70;99.90;;;;;;5083833;28;20048;-87
2021/09/12 03:26:17;;;;;;;4.13;3.72;;;15.70;99.90;;;;;;5094658;28;20050;-88
2021/09/12 03:28:43;;;;;;;5.10;4.03;;;15.70;99.90;;;;;;5077556;28;20017;-88
2021/09/12 03:31:09;;;;;;;4.57;3.58;;;15.80;99.90;;;;;;5082580;28;20504;-87
2021/09/12 03:33:35;;;;;;;4.88;3.85;;;15.70;99.90;;;;;;5090280;28;20048;-87
2021/09/12 03:36:00;;;;;;;4.47;3.70;;;15.80;99.90;;;;;;5090909;28;20055;-88
2021/09/12 03:38:26;;;;;;;6.47;4.47;;;15.80;99.90;;;;;;5081238;28;20365;-87
2021/09/12 03:40:52;;;;;;;4.57;4.18;;;15.80;99.90;;;;;;5077736;28;20086;-87
2021/09/12 03:43:17;;;;;;;4.13;3.70;;;15.80;99.90;;;;;;5062754;28;20023;-88
2021/09/12 03:45:43;;;;;;;4.55;3.70;;;15.80;99.90;;;;;;5064449;28;20067;-87
2021/09/12 03:48:09;;;;;;;4.18;3.78;;;15.70;99.90;;;;;;5082484;28;20028;-87
2021/09/12 03:50:35;;;;;;;4.10;3.67;;;15.80;99.90;;;;;;5082064;28;20035;-87
2021/09/12 03:53:01;;;;;;;3.97;3.58;;;15.80;99.90;;;;;;5077917;28;20024;-87
2021/09/12 03:55:26;;;;;;;4.65;3.50;;;15.80;99.90;;;;;;5094724;28;20027;-87
2021/09/12 03:57:52;;;;;;;4.32;3.92;;;15.60;99.90;;;;;;5083209;28;20091;-88
2021/09/12 04:00:18;;;;;;;4.70;4.00;;;15.50;99.90;;;;;;5088038;28;20091;-87
2021/09/12 04:02:44;;;;;;;5.05;3.92;;;15.40;99.90;;;;;;5093534;28;20027;-87
2021/09/12 04:05:10;;;;;;;4.55;3.58;;;15.40;99.90;;;;;;5094125;28;20035;-88
2021/09/12 04:07:36;;;;;;;6.40;3.88;;;15.50;99.90;;;;;;5078212;28;20025;-87
2021/09/12 04:10:02;;;;;;;5.05;4.00;;;15.50;99.90;;;;;;5093538;28;20495;-87
2021/09/12 04:12:27;;;;;;;4.03;3.60;;;15.50;99.90;;;;;;5075150;28;20039;-87
2021/09/12 04:14:53;;;;;;;6.38;4.10;;;15.40;99.90;;;;;;5070069;28;20039;-88
2021/09/12 04:17:19;;;;;;;4.70;4.00;;;15.30;99.90;;;;;;5075174;28;20024;-87
2021/09/12 04:19:45;;;;;;;5.40;3.72;;;15.20;99.90;;;;;;5093911;28;20035;-88
2021/09/12 04:22:11;;;;;;;5.18;3.83;;;15.30;99.90;;;;;;5080616;28;20074;-87
2021/09/12 04:24:37;;;;;;;4.35;3.80;;;15.30;99.90;;;;;;5081497;28;20446;-87
2021/09/12 04:27:03;;;;;;;4.20;3.80;;;15.40;99.90;;;;;;5082175;28;20032;-88
2021/09/12 04:29:29;;;;;;;4.90;3.83;;;15.40;99.90;;;;;;5080666;28;20491;-87
2021/09/12 04:31:54;;;;;;;5.10;4.00;;;15.30;99.90;;;;;;5093347;28;20392;-87
2021/09/12 04:34:20;;;;;;;4.63;4.03;;;15.30;99.90;;;;;;5080300;28;20032;-88
2021/09/12 04:36:45;;;;;;;4.55;3.88;;;15.40;99.90;;;;;;5081261;28;20029;-87
2021/09/12 04:39:11;;;;;;;5.93;4.05;;;15.40;99.90;;;;;;5081512;28;20035;-87
2021/09/12 04:41:37;;;;;;;5.85;4.28;;;15.30;99.90;;;;;;5081061;28;20039;-87
2021/09/12 04:44:03;;;;;;;6.57;4.50;;;15.40;99.90;;;;;;5075728;28;20039;-87
2021/09/12 04:46:28;;;;;;;7.60;4.20;;;15.30;99.90;;;;;;5078305;28;20082;-87
2021/09/12 04:48:54;;;;;;;5.88;4.57;;;15.30;99.90;;;;;;5081293;28;20103;-87
2021/09/12 04:51:20;;;;;;;4.82;4.28;;;15.40;99.90;;;;;;5086674;28;20058;-87
2021/09/12 04:53:45;;;;;;;6.47;4.45;;;15.40;99.90;;;;;;5073762;28;20426;-88
2021/09/12 04:56:11;;;;;;;4.53;4.10;;;15.40;99.90;;;;;;5077240;28;20048;-87
2021/09/12 04:58:37;;;;;;;4.45;4.05;;;15.30;99.90;;;;;;5076604;28;20069;-87
2021/09/12 05:01:03;;;;;;;5.18;4.38;;;15.20;99.90;;;;;;5092648;28;20035;-86
2021/09/12 05:03:29;;;;;;;5.90;4.10;;;15.20;99.90;;;;;;5085468;28;20114;-87
2021/09/12 05:05:55;;;;;;;4.72;4.30;;;15.20;99.90;;;;;;5080747;28;20039;-87
2021/09/12 05:08:20;;;;;;;5.07;4.15;;;15.10;99.90;;;;;;5060019;28;20384;-87
2021/09/12 05:10:46;;;;;;;5.90;4.15;;;15.10;99.90;;;;;;5076099;28;20437;-88
2021/09/12 05:13:12;;;;;;;5.85;3.88;;;15.10;99.90;;;;;;5079174;28;20489;-87
2021/09/12 05:15:37;;;;;;;4.15;3.85;;;15.10;99.90;;;;;;5088754;28;20064;-88
2021/09/12 05:18:03;;;;;;;6.88;3.97;;;15.10;99.90;;;;;;5092335;28;20028;-87
2021/09/12 05:20:29;;;;;;;4.40;3.80;;;15.00;99.90;;;;;;5092488;28;20143;-87
2021/09/12 05:22:54;;;;;;;4.25;3.78;;;15.00;99.90;;;;;;5075975;28;20053;-88
2021/09/12 05:25:20;;;;;;;7.00;4.05;;;15.00;99.90;;;;;;5078066;28;20036;-87
2021/09/12 05:27:46;;;;;;;4.88;4.32;;;15.00;99.90;;;;;;5080514;28;20086;-89
2021/09/12 05:30:12;;;;;;;4.72;3.67;;;14.90;99.90;;;;;;5085418;28;20427;-88
2021/09/12 05:32:37;;;;;;;4.50;3.83;;;15.00;99.90;;;;;;5092286;28;20095;-87
2021/09/12 05:35:04;;;;;;;5.15;3.95;;;15.00;99.90;;;;;;5092127;28;20085;-87
2021/09/12 05:37:29;;;;;;;4.68;4.18;;;15.00;99.90;;;;;;5092477;28;20031;-87
2021/09/12 05:39:55;;;;;;;4.30;3.90;;;15.00;99.90;;;;;;5057773;28;20416;-87
2021/09/12 05:42:21;;;;;;;4.38;3.90;;;15.10;99.90;;;;;;5086288;28;20508;-88
2021/09/12 05:44:46;;;;;;;4.55;4.00;;;15.10;99.90;;;;;;5090826;28;20341;-88
2021/09/12 05:47:12;;;;;;;5.22;4.10;;;15.10;99.90;;;;;;5058892;28;20378;-87
2021/09/12 05:49:38;;;;;;;6.18;4.47;;;15.10;99.90;;;;;;5075967;28;20108;-87
2021/09/12 05:52:04;;;;;;;6.15;4.50;;;15.20;99.90;;;;;;5062221;28;20029;-87
2021/09/12 05:54:30;;;;;;;4.57;4.18;;;15.20;99.90;;;;;;5068761;28;20028;-87
2021/09/12 05:56:56;;;;;;;7.28;4.40;;;15.20;99.90;;;;;;5089033;28;20031;-87
2021/09/12 05:59:21;;;;;;;4.72;3.78;;;15.20;99.90;;;;;;5059573;28;20020;-87
2021/09/12 06:01:47;;;;;;;6.18;4.50;;;15.30;99.90;;;;;;5075788;28;20028;-87
2021/09/12 06:04:13;;;;;;;6.03;3.83;;;15.40;99.90;;;;;;5060717;28;20032;-87
2021/09/12 06:06:38;;;;;;;4.80;4.03;;;15.40;99.90;;;;;;5087632;28;20093;-87
2021/09/12 06:09:04;;;;;;;5.13;4.18;;;15.30;99.90;;;;;;5091342;28;20036;-87
2021/09/12 06:11:30;;;;;;;4.95;4.10;;;15.30;99.90;;;;;;5092101;28;20028;-87
2021/09/12 06:13:55;;;;;;;6.05;4.28;;;15.40;99.90;;;;;;5057738;28;20082;-87
2021/09/12 06:16:21;;;;;;;7.40;4.47;;;15.50;99.90;;;;;;5092210;28;20032;-87
2021/09/12 06:18:47;;;;;;;4.57;4.05;;;15.60;99.90;;;;;;5081646;28;20099;-87
2021/09/12 06:21:12;;;;;;;4.95;4.45;;;15.60;99.90;;;;;;5056604;28;20036;-87
2021/09/12 06:23:38;;;;;;;6.50;4.35;;;15.60;99.90;;;;;;5080046;28;20408;-87
2021/09/12 06:26:04;;;;;;;7.43;4.60;;;15.60;99.90;;;;;;5075166;28;20040;-87
2021/09/12 06:28:30;;;;;;;5.75;4.35;;;15.70;99.90;;;;;;5074028;28;20038;-87
2021/09/12 06:30:55;;;;;;;6.28;4.95;;;15.90;99.90;;;;;;5080659;28;20146;-87
2021/09/12 06:33:21;;;;;;;6.63;4.57;;;16.00;99.90;;;;;;5085306;28;20081;-87
2021/09/12 06:35:47;;;;;;;6.40;5.03;;;16.00;99.90;;;;;;5091242;28;20047;-87
2021/09/12 06:38:12;;;;;;;6.53;5.20;;;15.90;99.90;;;;;;5072698;28;20031;-87
2021/09/12 06:40:38;;;;;;;6.05;4.93;;;15.70;99.90;;;;;;5091611;28;20028;-87
2021/09/12 06:43:04;;;;;;;6.68;5.20;;;15.90;99.90;;;;;;5079904;28;20017;-87
2021/09/12 06:45:30;;;;;;;5.45;4.95;;;15.90;99.90;;;;;;5079543;28;20044;-88
2021/09/12 06:47:57;;;;;;;6.22;5.00;;;16.20;99.90;;;;;;5081924;28;20025;-87
2021/09/12 06:50:24;;;;;;;5.93;5.32;;;16.40;99.90;;;;;;5091118;28;20028;-86
2021/09/12 06:52:52;;;;;;;5.93;5.15;;;16.40;99.90;;;;;;5075299;28;20047;-87
2021/09/12 06:55:19;;;;;;;6.68;5.45;;;16.20;99.90;;;;;;5073823;28;20414;-87
2021/09/12 06:57:44;;;;;;;7.20;5.55;;;16.40;99.90;;;;;;5091173;28;20031;-87
2021/09/12 07:00:11;;;;;;;6.57;5.20;;;16.50;99.90;;;;;;5062806;28;20119;-87
2021/09/12 07:02:38;;;;;;;7.00;5.55;;;16.60;99.90;;;;;;5078810;28;20066;-87
2021/09/12 07:05:07;;;;;;;8.35;5.10;;;16.70;99.90;;;;;;5074742;28;20070;-87
2021/09/12 07:07:33;;;;;;;6.53;5.38;;;16.80;99.90;;;;;;5088518;28;20074;-87
2021/09/12 07:09:59;;;;;;;7.38;5.20;;;16.80;99.90;;;;;;5083470;28;20123;-87
2021/09/12 07:12:24;;;;;;;6.75;5.35;;;16.80;99.90;;;;;;5059754;28;20115;-88
2021/09/12 07:14:50;;;;;;;6.53;5.85;;;16.70;99.90;;;;;;5082700;28;20085;-87
2021/09/12 07:17:16;;;;;;;6.88;5.40;;;16.90;99.90;;;;;;5080091;28;20020;-87
2021/09/12 07:19:42;;;;;;;8.52;5.30;;;16.90;99.90;;;;;;5095007;28;20028;-85
2021/09/12 07:22:07;;;;;;;5.90;5.30;;;17.00;99.90;;;;;;5076683;28;20016;-87
2021/09/12 07:24:33;;;;;;;6.97;5.28;;;17.10;99.90;;;;;;5073120;28;20044;-87
2021/09/12 07:26:59;;;;;;;6.32;5.18;;;17.30;99.90;;;;;;5092233;28;20024;-87
2021/09/12 07:29:24;;;;;;;6.72;5.57;;;17.20;99.90;;;;;;5080922;28;20024;-87
2021/09/12 07:31:51;;;;;;;6.75;5.40;;;17.30;99.90;;;;;;5078009;28;20047;-87
2021/09/12 07:34:17;;;;;;;8.75;5.85;;;17.50;99.90;;;;;;5079112;28;20031;-87
2021/09/12 07:36:42;;;;;;;6.50;5.90;;;17.60;99.90;;;;;;5082597;28;20020;-87
2021/09/12 07:39:08;;;;;;;6.93;5.57;;;17.60;99.90;;;;;;5064568;28;20451;-87
2021/09/12 07:41:34;;;;;;;9.45;6.50;;;17.70;99.90;;;;;;5082208;28;20020;-89
2021/09/12 07:43:59;;;;;;;7.85;6.15;;;17.90;99.90;;;;;;5077745;28;20400;-87
2021/09/12 07:46:25;;;;;;;7.50;6.70;;;18.10;99.90;;;;;;5094411;28;20044;-87
2021/09/12 07:48:51;;;;;;;9.55;7.43;;;18.10;99.90;;;;;;5084050;28;20072;-87
2021/09/12 07:51:16;;;;;;;9.00;8.00;;;18.10;99.90;;;;;;5058649;28;20027;-86
2021/09/12 07:53:42;;;;;;;9.82;7.45;;;18.10;99.90;;;;;;5083060;28;20020;-87
2021/09/12 07:56:08;;;;;;;13.75;8.13;;;18.10;99.90;;;;;;5094360;28;20016;-87
2021/09/12 07:58:33;;;;;;;8.13;7.10;;;18.20;99.90;;;;;;5089725;28;20444;-87
2021/09/12 08:00:59;;;;;;;8.15;7.38;;;18.30;99.90;;;;;;5075307;28;20062;-87
2021/09/12 08:03:25;;;;;;;11.02;8.48;;;18.40;99.90;;;;;;5092060;28;20032;-88
2021/09/12 08:05:50;;;;;;;9.02;8.13;;;18.30;99.90;;;;;;5093142;28;20480;-87
2021/09/12 08:08:18;;;;;;;9.52;8.18;;;18.40;99.90;;;;;;5093406;28;20419;-88
2021/09/12 08:10:44;;;;;;;10.10;8.75;;;18.70;99.90;;;;;;5077995;28;20472;-88
2021/09/12 08:13:09;;;;;;;9.30;8.40;;;18.60;99.90;;;;;;5081872;28;20035;-88
2021/09/12 08:15:35;;;;;;;9.95;9.02;;;18.60;99.90;;;;;;5081841;28;20046;-88
2021/09/12 08:18:01;;;;;;;9.82;8.60;;;18.70;99.90;;;;;;5084933;28;20030;-87
2021/09/12 08:20:26;;;;;;;12.52;8.80;;;18.60;99.90;;;;;;5093016;28;20111;-88
2021/09/12 08:22:52;;;;;;;9.60;8.57;;;18.80;99.90;;;;;;5077464;28;20522;-88
2021/09/12 08:25:17;;;;;;;9.27;8.35;;;18.70;99.90;;;;;;5075791;28;20093;-88
2021/09/12 08:27:43;;;;;;;10.88;9.68;;;18.70;99.90;;;;;;5084368;28;20029;-89
2021/09/12 08:30:09;;;;;;;10.55;8.45;;;18.80;99.90;;;;;;5063264;28;20028;-88
2021/09/12 08:32:35;;;;;;;8.75;7.85;;;18.90;99.90;;;;;;5081145;28;20020;-89
2021/09/12 08:35:00;;;;;;;9.40;8.40;;;19.00;99.90;;;;;;5058701;28;20016;-88
2021/09/12 08:37:26;;;;;;;9.30;7.57;;;19.00;99.90;;;;;;5079233;28;20071;-90
2021/09/12 08:39:53;;;;;;;8.38;7.25;;;19.00;99.90;;;;;;5081055;28;20032;-89
2021/09/12 08:42:18;;;;;;;9.30;6.88;;;19.10;99.90;;;;;;5063209;28;20035;-89
2021/09/12 08:44:46;;;;;;;9.15;6.75;;;19.10;99.90;;;;;;5081634;28;20024;-89
2021/09/12 08:47:12;;;;;;;7.70;6.95;;;19.20;99.90;;;;;;5093677;28;20071;-89
2021/09/12 08:49:38;;;;;;;7.30;6.60;;;19.50;99.90;;;;;;5059205;28;20056;-88
2021/09/12 08:52:03;;;;;;;6.75;6.13;;;19.50;99.90;;;;;;5092899;28;20035;-89
2021/09/12 08:54:29;;;;;;;10.02;6.93;;;19.60;99.90;;;;;;5086338;28;20025;-90
2021/09/12 08:56:55;;;;;;;6.72;6.03;;;19.70;99.90;;;;;;5083050;28;20044;-90
2021/09/12 08:59:28;;;;;;;7.43;6.43;;;19.60;99.90;;;;;;5093106;28;20016;-89
2021/09/12 09:01:56;;;;;;;6.20;5.60;;;19.90;99.90;;;;;;5093817;28;20392;-90
2021/09/12 09:04:26;;;;;;;6.07;5.38;;;20.10;99.90;;;;;;5079344;28;20397;-90
2021/09/12 09:07:05;;;;;;;6.97;5.82;;;20.10;99.90;;;;;;5081465;28;20127;-90
2021/09/12 09:09:47;;;;;;;7.57;6.88;;;20.30;99.90;;;;;;5081529;28;20525;-90
2021/09/12 09:12:32;;;;;;;6.85;6.25;;;20.50;99.90;;;;;;5081601;28;20111;-90
2021/09/12 09:15:07;;;;;;;8.73;6.88;;;20.70;99.90;;;;;;5081481;28;20502;-90
2021/09/12 09:17:42;;;;;;;7.45;6.47;;;21.00;99.90;;;;;;5080016;28;20452;-90
2021/09/12 09:20:11;;;;;;;6.93;6.22;;;21.00;99.90;;;;;;5059188;28;20034;-90
2021/09/12 09:22:43;;;;;;;8.30;5.65;;;21.10;99.90;;;;;;5089503;28;20028;-89
2021/09/12 09:25:21;;;;;;;5.28;4.78;;;21.30;99.90;;;;;;5075234;28;20081;-88
2021/09/12 09:28:01;;;;;;;6.72;6.13;;;22.90;99.90;;;;;;5092437;28;20036;-90
2021/09/12 09:30:49;;;;;;;5.95;5.32;;;28.30;99.90;;;;;;5085962;28;20021;-90
2021/09/12 09:33:24;;;;;;;5.60;5.10;;;33.00;99.90;;;;;;5063500;28;20020;-92
2021/09/12 09:35:56;;;;;;;5.35;4.50;;;35.60;96.90;;;;;;5081521;28;20042;-91
2021/09/12 09:38:25;;;;;;;5.35;4.30;;;37.40;93.20;;;;;;5060409;28;20016;-91
2021/09/12 09:41:14;;;;;;;5.25;4.40;;;38.50;90.30;;;;;;5075012;28;20523;-92
2021/09/12 09:43:40;;;;;;;4.43;4.03;;;38.30;86.10;;;;;;5075146;28;20019;-92
2021/09/12 09:46:07;;;;;;;5.30;4.00;;;39.50;77.40;;;;;;5092309;28;20028;-91
2021/09/12 09:48:34;;;;;;;5.00;4.00;;;40.90;74.10;;;;;;5085626;28;20071;-92
2021/09/12 09:51:03;;;;;;;4.20;3.80;;;40.10;74.50;;;;;;5062929;28;20025;-92
2021/09/12 09:53:35;;;;;;;4.63;4.00;;;41.10;62.60;;;;;;5080018;28;20099;-92
2021/09/12 09:56:03;;;;;;;4.05;3.60;;;41.20;65.20;;;;;;5092859;28;20040;-92
2021/09/12 09:58:31;;;;;;;3.80;3.40;;;41.40;65.50;;;;;;5060629;28;20020;-92
2021/09/12 10:00:57;;;;;;;3.85;3.55;;;40.80;63.80;;;;;;5080812;28;20044;-92
2021/09/12 10:03:24;;;;;;;4.03;3.72;;;41.70;58.60;;;;;;5087363;28;20386;-92
2021/09/12 10:05:50;;;;;;;3.47;3.17;;;42.00;58.40;;;;;;5073282;28;20074;-92
2021/09/12 10:08:16;;;;;;;3.42;3.17;;;42.20;54.80;;;;;;5077510;28;20491;-93
2021/09/12 10:10:43;;;;;;;4.05;3.40;;;42.60;51.70;;;;;;5076180;28;20020;-93
2021/09/12 10:13:11;;;;;;;6.30;3.28;;;42.00;55.00;;;;;;5081180;28;20024;-92
2021/09/12 10:15:40;;;;;;;4.68;3.53;;;42.70;53.10;;;;;;5062682;28;20032;-93
2021/09/12 10:18:07;;;;;;;3.40;3.10;;;43.70;49.70;;;;;;5066522;28;20114;-93
2021/09/12 10:20:34;;;;;;;3.03;2.72;;;42.20;50.60;;;;;;5074474;28;20031;-93
2021/09/12 10:23:01;;;;;;;5.40;3.58;;;43.20;51.50;;;;;;5075734;28;20055;-92
2021/09/12 10:25:29;;;;;;;6.10;5.60;;;44.00;46.30;;;;;;5092808;28;20031;-92
2021/09/12 10:28:08;;;;;;;3.92;3.55;;;43.00;49.30;;;;;;5058520;28;20037;-93
2021/09/12 10:30:43;;;;;;;3.05;2.85;;;42.90;49.80;;;;;;5069041;28;20089;-92
2021/09/12 10:33:12;;;;;;;3.15;2.85;;;43.50;49.20;;;;;;5083957;28;20040;-91
2021/09/12 10:35:53;;;;;;;2.90;2.70;;;43.90;46.20;;;;;;5092608;28;20036;-91
2021/09/12 10:38:30;;;;;;;3.35;2.92;;;44.10;43.90;;;;;;5092545;28;20028;-91
2021/09/12 10:40:56;;;;;;;3.67;2.60;;;45.10;39.70;;;;;;5076177;28;20636;-91
2021/09/12 10:43:25;;;;;;;3.05;2.67;;;44.60;35.00;;;;;;5077351;28;20430;-92
2021/09/12 10:46:09;;;;;;;3.20;2.53;;;44.70;35.50;;;;;;5095725;28;20036;-91
2021/09/12 10:48:39;;;;;;;2.60;2.40;;;43.60;34.80;;;;;;5077233;28;20035;-91
2021/09/12 10:51:28;;;;;;;3.65;2.30;;;43.40;39.20;;;;;;5096107;28;20028;-91
2021/09/12 10:53:59;;;;;;;3.03;2.33;;;44.40;39.40;;;;;;5093598;28;20055;-92
2021/09/12 10:56:25;;;;;;;2.78;2.58;;;45.20;34.10;;;;;;5081694;28;20020;-91
2021/09/12 10:58:56;;;;;;;2.67;2.30;;;45.70;30.30;;;;;;5079757;28;20498;-92
2021/09/12 11:01:27;;;;;;;2.90;2.70;;;46.00;31.80;;;;;;5080299;28;20484;-92
2021/09/12 11:03:57;;;;;;;2.95;2.20;;;44.50;32.70;;;;;;5083645;28;20029;-92
2021/09/12 11:06:23;;;;;;;2.90;2.70;;;45.20;42.00;;;;;;5083889;28;20520;-92
2021/09/12 11:08:49;;;;;;;2.70;2.50;;;45.20;27.20;;;;;;5083372;28;20009;-91
2021/09/12 11:11:15;;;;;;;2.70;2.50;;;44.20;29.50;;;;;;5080413;28;20543;-91
2021/09/12 11:13:41;;;;;;;2.50;2.30;;;44.80;29.00;;;;;;5078713;28;20020;-92
2021/09/12 11:16:10;;;;;;;2.70;2.50;;;46.10;25.40;;;;;;5083665;28;20087;-91
2021/09/12 11:19:00;;;;;;;3.03;2.40;;;46.30;27.30;;;;;;5083403;28;20159;-91
2021/09/12 11:21:38;;;;;;;2.30;2.10;;;45.80;30.00;;;;;;5090144;28;20084;-92
2021/09/12 11:24:08;;;;;;;3.03;2.33;;;47.20;26.80;;;;;;5090969;28;20053;-92
2021/09/12 11:26:46;;;;;;;2.58;2.35;;;47.50;23.90;;;;;;5064251;28;20033;-91
2021/09/12 11:29:21;;;;;;;3.10;2.60;;;46.70;27.10;;;;;;5060672;28;20442;-91
2021/09/12 11:31:49;;;;;;;3.58;2.88;;;47.60;25.70;;;;;;5095079;28;20021;-92
2021/09/12 11:34:39;;;;;;;2.30;2.10;;;47.70;24.30;;;;;;5082679;28;20508;-92
2021/09/12 11:37:05;;;;;;;2.63;2.42;;;48.00;21.70;;;;;;5081248;28;20052;-92
2021/09/12 11:39:34;;;;;;;2.55;2.35;;;47.90;18.20;;;;;;5083390;28;20062;-92
2021/09/12 11:42:02;;;;;;;2.40;2.20;;;46.90;25.30;;;;;;5067041;28;20020;-92
2021/09/12 11:44:38;;;;;;;3.22;2.03;;;47.50;23.80;;;;;;5073449;28;20400;-92
2021/09/12 11:47:12;;;;;;;3.10;2.80;;;46.90;22.90;;;;;;5094355;28;20105;-92
2021/09/12 11:49:39;;;;;;;2.67;2.47;;;46.60;26.00;;;;;;5089582;28;20024;-92
2021/09/12 11:52:06;;;;;;;2.55;2.25;;;46.70;25.80;;;;;;5094530;28;20433;-92
2021/09/12 11:54:32;;;;;;;3.45;2.20;;;47.40;19.80;;;;;;5063917;28;20035;-91
2021/09/12 11:57:09;;;;;;;2.75;2.20;;;46.60;21.00;;;;;;5085580;28;20058;-91
2021/09/12 11:59:44;;;;;;;2.42;2.17;;;46.60;23.40;;;;;;5094871;28;20506;-92
2021/09/12 12:02:20;;;;;;;2.42;2.00;;;46.80;25.10;;;;;;5078652;28;20016;-92
2021/09/12 12:04:46;;;;;;;2.90;2.70;;;46.40;24.30;;;;;;5094355;28;20031;-92
2021/09/12 12:07:13;;;;;;;5.32;3.42;;;45.40;24.50;;;;;;5094269;28;20031;-92
2021/09/12 12:09:46;;;;;;;4.00;3.70;;;45.60;24.00;;;;;;5066436;28;20493;-91
2021/09/12 12:12:17;;;;;;;3.78;3.38;;;44.90;37.90;;;;;;5087250;28;20034;-90
2021/09/12 12:14:58;;;;;;;4.75;2.60;;;45.50;24.20;;;;;;5093932;28;20073;-92
2021/09/12 12:17:25;;;;;;;2.60;2.40;;;43.20;31.50;;;;;;5094520;28;20059;-92
2021/09/12 12:19:52;;;;;;;2.47;2.22;;;43.90;30.40;;;;;;5093378;28;20032;-92
2021/09/12 12:22:19;;;;;;;2.58;2.10;;;44.40;28.40;;;;;;5076389;28;20028;-92
2021/09/12 12:24:47;;;;;;;2.30;2.10;;;45.20;26.20;;;;;;5085236;28;20510;-92
2021/09/12 12:27:15;;;;;;;4.25;2.20;;;46.20;26.70;;;;;;5086501;28;20063;-91
2021/09/12 12:29:42;;;;;;;2.80;2.38;;;45.90;24.30;;;;;;5075221;28;20495;-92
2021/09/12 12:32:11;;;;;;;2.53;2.33;;;47.10;21.30;;;;;;5058874;28;20056;-91
2021/09/12 12:34:54;;;;;;;2.53;2.33;;;47.10;19.40;;;;;;5089869;28;20062;-91
2021/09/12 12:37:43;;;;;;;3.08;2.30;;;47.20;20.10;;;;;;5078611;28;20033;-91
2021/09/12 12:40:20;;;;;;;2.17;2.08;;;47.60;20.30;;;;;;5081568;28;20025;-92
2021/09/12 12:42:47;;;;;;;2.38;2.20;;;46.90;21.20;;;;;;5090713;28;20024;-91
2021/09/12 12:45:28;;;;;;;2.10;2.00;;;46.20;22.20;;;;;;5094089;28;20507;-92
2021/09/12 12:47:57;;;;;;;2.53;2.30;;;44.60;26.60;;;;;;5091533;28;20069;-91